sensor_id;sensor_type;location;lat;lon;timestamp;P1;durP1;ratioP1;P2;durP2;ratioP2
73776;SDS011;62088;50.240;2.696;2023-08-30T00:01:12;4.80;;;2.58;;
73776;SDS011;62088;50.240;2.696;2023-08-30T00:03:39;5.50;;;2.90;;
73776;SDS011;62088;50.240;2.696;2023-08-30T00:06:06;5.32;;;2.30;;
73776;SDS011;62088;50.240;2.696;2023-08-30T00:08:33;6.18;;;2.70;;
73776;SDS011;62088;50.240;2.696;2023-08-30T00:11:01;4.90;;;2.47;;
73776;SDS011;62088;50.240;2.696;2023-08-30T00:13:29;7.43;;;2.92;;
73776;SDS011;62088;50.240;2.696;2023-08-30T00:15:58;5.82;;;2.45;;
73776;SDS011;62088;50.240;2.696;2023-08-30T00:18:26;5.35;;;2.65;;
73776;SDS011;62088;50.240;2.696;2023-08-30T00:20:53;5.50;;;2.70;;
73776;SDS011;62088;50.240;2.696;2023-08-30T00:23:20;6.05;;;2.72;;
73776;SDS011;62088;50.240;2.696;2023-08-30T00:25:47;3.90;;;2.08;;
73776;SDS011;62088;50.240;2.696;2023-08-30T00:28:15;5.15;;;2.75;;
73776;SDS011;62088;50.240;2.696;2023-08-30T00:30:42;6.22;;;2.45;;
73776;SDS011;62088;50.240;2.696;2023-08-30T00:33:09;4.80;;;2.72;;
73776;SDS011;62088;50.240;2.696;2023-08-30T00:35:36;7.32;;;2.63;;
73776;SDS011;62088;50.240;2.696;2023-08-30T00:38:03;7.95;;;2.60;;
73776;SDS011;62088;50.240;2.696;2023-08-30T00:40:37;5.72;;;2.50;;
73776;SDS011;62088;50.240;2.696;2023-08-30T00:43:05;6.03;;;2.17;;
73776;SDS011;62088;50.240;2.696;2023-08-30T00:45:34;6.70;;;2.50;;
73776;SDS011;62088;50.240;2.696;2023-08-30T00:48:04;4.32;;;2.13;;
73776;SDS011;62088;50.240;2.696;2023-08-30T00:50:32;4.85;;;2.22;;
73776;SDS011;62088;50.240;2.696;2023-08-30T00:53:01;5.80;;;2.58;;
73776;SDS011;62088;50.240;2.696;2023-08-30T00:55:35;6.85;;;2.70;;
73776;SDS011;62088;50.240;2.696;2023-08-30T00:58:03;6.35;;;2.78;;
73776;SDS011;62088;50.240;2.696;2023-08-30T01:00:30;7.25;;;2.67;;
73776;SDS011;62088;50.240;2.696;2023-08-30T01:02:58;7.25;;;2.83;;
73776;SDS011;62088;50.240;2.696;2023-08-30T01:05:26;5.80;;;2.60;;
73776;SDS011;62088;50.240;2.696;2023-08-30T01:07:54;6.32;;;2.58;;
73776;SDS011;62088;50.240;2.696;2023-08-30T01:10:24;6.90;;;3.00;;
73776;SDS011;62088;50.240;2.696;2023-08-30T01:13:19;8.30;;;3.30;;
73776;SDS011;62088;50.240;2.696;2023-08-30T01:15:47;5.35;;;2.92;;
73776;SDS011;62088;50.240;2.696;2023-08-30T01:18:17;6.38;;;3.00;;
73776;SDS011;62088;50.240;2.696;2023-08-30T01:20:46;6.13;;;2.80;;
73776;SDS011;62088;50.240;2.696;2023-08-30T01:28:31;6.10;;;2.80;;
73776;SDS011;62088;50.240;2.696;2023-08-30T01:31:00;6.45;;;2.70;;
73776;SDS011;62088;50.240;2.696;2023-08-30T01:33:29;5.68;;;2.97;;
73776;SDS011;62088;50.240;2.696;2023-08-30T01:35:59;6.28;;;2.60;;
73776;SDS011;62088;50.240;2.696;2023-08-30T01:38:28;6.07;;;3.30;;
73776;SDS011;62088;50.240;2.696;2023-08-30T01:40:56;7.35;;;2.95;;
73776;SDS011;62088;50.240;2.696;2023-08-30T01:43:26;5.63;;;3.05;;
73776;SDS011;62088;50.240;2.696;2023-08-30T01:45:57;5.60;;;2.85;;
73776;SDS011;62088;50.240;2.696;2023-08-30T01:48:28;6.53;;;3.28;;
73776;SDS011;62088;50.240;2.696;2023-08-30T01:50:56;4.97;;;2.70;;
73776;SDS011;62088;50.240;2.696;2023-08-30T01:53:25;7.22;;;3.33;;
73776;SDS011;62088;50.240;2.696;2023-08-30T01:55:53;5.80;;;3.25;;
73776;SDS011;62088;50.240;2.696;2023-08-30T01:58:20;6.28;;;3.40;;
73776;SDS011;62088;50.240;2.696;2023-08-30T02:00:47;6.45;;;3.63;;
73776;SDS011;62088;50.240;2.696;2023-08-30T02:03:14;5.38;;;3.25;;
73776;SDS011;62088;50.240;2.696;2023-08-30T02:08:26;6.05;;;3.30;;
73776;SDS011;62088;50.240;2.696;2023-08-30T02:11:03;5.57;;;3.17;;
73776;SDS011;62088;50.240;2.696;2023-08-30T02:13:34;5.82;;;3.55;;
73776;SDS011;62088;50.240;2.696;2023-08-30T02:16:02;5.47;;;3.55;;
73776;SDS011;62088;50.240;2.696;2023-08-30T02:18:30;6.38;;;3.50;;
73776;SDS011;62088;50.240;2.696;2023-08-30T02:21:00;6.50;;;3.67;;
73776;SDS011;62088;50.240;2.696;2023-08-30T02:23:27;7.18;;;3.55;;
73776;SDS011;62088;50.240;2.696;2023-08-30T02:25:56;6.43;;;3.78;;
73776;SDS011;62088;50.240;2.696;2023-08-30T02:28:23;6.32;;;4.20;;
73776;SDS011;62088;50.240;2.696;2023-08-30T02:30:52;8.27;;;4.45;;
73776;SDS011;62088;50.240;2.696;2023-08-30T02:33:20;6.55;;;3.83;;
73776;SDS011;62088;50.240;2.696;2023-08-30T02:35:48;6.00;;;4.13;;
73776;SDS011;62088;50.240;2.696;2023-08-30T02:38:15;6.53;;;4.30;;
73776;SDS011;62088;50.240;2.696;2023-08-30T02:40:42;6.93;;;4.20;;
73776;SDS011;62088;50.240;2.696;2023-08-30T02:43:09;6.45;;;4.20;;
73776;SDS011;62088;50.240;2.696;2023-08-30T02:45:37;9.00;;;4.63;;
73776;SDS011;62088;50.240;2.696;2023-08-30T02:48:04;8.20;;;4.97;;
73776;SDS011;62088;50.240;2.696;2023-08-30T02:50:31;8.43;;;4.75;;
73776;SDS011;62088;50.240;2.696;2023-08-30T02:52:58;8.23;;;4.65;;
73776;SDS011;62088;50.240;2.696;2023-08-30T02:55:25;7.32;;;4.40;;
73776;SDS011;62088;50.240;2.696;2023-08-30T02:57:52;6.13;;;4.50;;
73776;SDS011;62088;50.240;2.696;2023-08-30T03:00:20;5.60;;;4.38;;
73776;SDS011;62088;50.240;2.696;2023-08-30T03:02:49;7.32;;;4.90;;
73776;SDS011;62088;50.240;2.696;2023-08-30T03:05:17;7.28;;;4.68;;
73776;SDS011;62088;50.240;2.696;2023-08-30T03:07:44;8.15;;;5.07;;
73776;SDS011;62088;50.240;2.696;2023-08-30T03:10:11;9.73;;;5.07;;
73776;SDS011;62088;50.240;2.696;2023-08-30T03:12:39;8.02;;;4.53;;
73776;SDS011;62088;50.240;2.696;2023-08-30T03:15:06;7.53;;;4.82;;
73776;SDS011;62088;50.240;2.696;2023-08-30T03:17:34;7.85;;;4.75;;
73776;SDS011;62088;50.240;2.696;2023-08-30T03:20:01;8.82;;;5.47;;
73776;SDS011;62088;50.240;2.696;2023-08-30T03:22:33;7.82;;;5.10;;
73776;SDS011;62088;50.240;2.696;2023-08-30T03:25:00;7.93;;;5.10;;
73776;SDS011;62088;50.240;2.696;2023-08-30T03:27:30;7.65;;;5.18;;
73776;SDS011;62088;50.240;2.696;2023-08-30T03:29:57;6.65;;;4.45;;
73776;SDS011;62088;50.240;2.696;2023-08-30T03:32:24;7.03;;;4.25;;
73776;SDS011;62088;50.240;2.696;2023-08-30T03:34:51;8.05;;;4.80;;
73776;SDS011;62088;50.240;2.696;2023-08-30T03:37:18;7.53;;;4.93;;
73776;SDS011;62088;50.240;2.696;2023-08-30T03:39:45;9.10;;;4.95;;
73776;SDS011;62088;50.240;2.696;2023-08-30T03:42:12;8.95;;;5.30;;
73776;SDS011;62088;50.240;2.696;2023-08-30T03:44:39;6.72;;;4.70;;
73776;SDS011;62088;50.240;2.696;2023-08-30T03:47:06;7.85;;;5.00;;
73776;SDS011;62088;50.240;2.696;2023-08-30T03:49:34;6.53;;;5.05;;
73776;SDS011;62088;50.240;2.696;2023-08-30T03:52:02;8.30;;;4.75;;
73776;SDS011;62088;50.240;2.696;2023-08-30T03:54:29;8.40;;;5.30;;
73776;SDS011;62088;50.240;2.696;2023-08-30T03:56:57;6.75;;;4.72;;
73776;SDS011;62088;50.240;2.696;2023-08-30T03:59:24;6.60;;;4.70;;
73776;SDS011;62088;50.240;2.696;2023-08-30T04:01:53;6.35;;;4.68;;
73776;SDS011;62088;50.240;2.696;2023-08-30T04:04:21;10.90;;;4.70;;
73776;SDS011;62088;50.240;2.696;2023-08-30T04:06:48;9.45;;;4.90;;
73776;SDS011;62088;50.240;2.696;2023-08-30T04:09:15;7.40;;;4.90;;
73776;SDS011;62088;50.240;2.696;2023-08-30T04:11:43;7.55;;;4.68;;
73776;SDS011;62088;50.240;2.696;2023-08-30T04:14:10;7.45;;;4.60;;
73776;SDS011;62088;50.240;2.696;2023-08-30T04:16:37;8.02;;;4.85;;
73776;SDS011;62088;50.240;2.696;2023-08-30T04:19:06;7.57;;;4.45;;
73776;SDS011;62088;50.240;2.696;2023-08-30T04:21:33;6.43;;;4.38;;
73776;SDS011;62088;50.240;2.696;2023-08-30T04:24:00;6.55;;;4.15;;
73776;SDS011;62088;50.240;2.696;2023-08-30T04:26:27;7.07;;;4.22;;
73776;SDS011;62088;50.240;2.696;2023-08-30T04:28:55;6.00;;;4.32;;
73776;SDS011;62088;50.240;2.696;2023-08-30T04:31:22;6.72;;;4.40;;
73776;SDS011;62088;50.240;2.696;2023-08-30T04:33:49;7.30;;;4.68;;
73776;SDS011;62088;50.240;2.696;2023-08-30T04:36:19;6.63;;;4.80;;
73776;SDS011;62088;50.240;2.696;2023-08-30T04:38:47;6.63;;;4.20;;
73776;SDS011;62088;50.240;2.696;2023-08-30T04:41:46;9.85;;;4.90;;
73776;SDS011;62088;50.240;2.696;2023-08-30T04:44:14;8.52;;;4.90;;
73776;SDS011;62088;50.240;2.696;2023-08-30T04:46:41;6.65;;;4.35;;
73776;SDS011;62088;50.240;2.696;2023-08-30T04:49:08;7.15;;;4.65;;
73776;SDS011;62088;50.240;2.696;2023-08-30T04:51:35;8.85;;;5.32;;
73776;SDS011;62088;50.240;2.696;2023-08-30T04:54:02;7.10;;;4.80;;
73776;SDS011;62088;50.240;2.696;2023-08-30T04:56:29;9.13;;;5.30;;
73776;SDS011;62088;50.240;2.696;2023-08-30T04:58:57;8.07;;;5.07;;
73776;SDS011;62088;50.240;2.696;2023-08-30T05:01:24;6.88;;;5.00;;
73776;SDS011;62088;50.240;2.696;2023-08-30T05:03:54;8.05;;;4.75;;
73776;SDS011;62088;50.240;2.696;2023-08-30T05:06:22;6.93;;;4.80;;
73776;SDS011;62088;50.240;2.696;2023-08-30T05:08:50;7.72;;;5.00;;
73776;SDS011;62088;50.240;2.696;2023-08-30T05:11:17;8.70;;;4.65;;
73776;SDS011;62088;50.240;2.696;2023-08-30T05:13:44;8.90;;;5.30;;
73776;SDS011;62088;50.240;2.696;2023-08-30T05:16:12;8.52;;;5.35;;
73776;SDS011;62088;50.240;2.696;2023-08-30T05:18:40;7.25;;;5.00;;
73776;SDS011;62088;50.240;2.696;2023-08-30T05:21:07;7.65;;;5.10;;
73776;SDS011;62088;50.240;2.696;2023-08-30T05:23:34;8.10;;;5.82;;
73776;SDS011;62088;50.240;2.696;2023-08-30T05:26:01;9.27;;;5.97;;
73776;SDS011;62088;50.240;2.696;2023-08-30T05:28:28;7.70;;;5.60;;
73776;SDS011;62088;50.240;2.696;2023-08-30T05:30:55;8.23;;;5.25;;
73776;SDS011;62088;50.240;2.696;2023-08-30T05:33:28;8.45;;;5.80;;
73776;SDS011;62088;50.240;2.696;2023-08-30T05:36:10;7.88;;;5.40;;
73776;SDS011;62088;50.240;2.696;2023-08-30T05:38:58;6.53;;;4.82;;
73776;SDS011;62088;50.240;2.696;2023-08-30T05:41:34;8.00;;;4.72;;
73776;SDS011;62088;50.240;2.696;2023-08-30T05:44:01;10.05;;;5.32;;
73776;SDS011;62088;50.240;2.696;2023-08-30T05:46:29;7.10;;;5.13;;
73776;SDS011;62088;50.240;2.696;2023-08-30T05:48:56;8.30;;;5.75;;
73776;SDS011;62088;50.240;2.696;2023-08-30T05:51:23;8.60;;;5.28;;
73776;SDS011;62088;50.240;2.696;2023-08-30T05:53:51;8.77;;;5.35;;
73776;SDS011;62088;50.240;2.696;2023-08-30T05:56:18;9.55;;;5.32;;
73776;SDS011;62088;50.240;2.696;2023-08-30T05:58:45;9.18;;;5.38;;
73776;SDS011;62088;50.240;2.696;2023-08-30T06:01:12;7.53;;;5.50;;
73776;SDS011;62088;50.240;2.696;2023-08-30T06:03:40;8.98;;;5.85;;
73776;SDS011;62088;50.240;2.696;2023-08-30T06:06:07;9.00;;;5.93;;
73776;SDS011;62088;50.240;2.696;2023-08-30T06:08:34;8.43;;;5.28;;
73776;SDS011;62088;50.240;2.696;2023-08-30T06:11:01;7.50;;;5.40;;
73776;SDS011;62088;50.240;2.696;2023-08-30T06:13:29;8.07;;;6.05;;
73776;SDS011;62088;50.240;2.696;2023-08-30T06:15:56;7.45;;;5.43;;
73776;SDS011;62088;50.240;2.696;2023-08-30T06:18:23;7.35;;;5.50;;
73776;SDS011;62088;50.240;2.696;2023-08-30T06:20:50;8.40;;;5.72;;
73776;SDS011;62088;50.240;2.696;2023-08-30T06:23:18;8.45;;;5.53;;
73776;SDS011;62088;50.240;2.696;2023-08-30T06:25:53;6.78;;;5.35;;
73776;SDS011;62088;50.240;2.696;2023-08-30T06:28:20;6.03;;;4.65;;
73776;SDS011;62088;50.240;2.696;2023-08-30T06:30:48;8.27;;;5.32;;
73776;SDS011;62088;50.240;2.696;2023-08-30T06:33:15;7.63;;;5.10;;
73776;SDS011;62088;50.240;2.696;2023-08-30T06:35:42;6.70;;;4.90;;
73776;SDS011;62088;50.240;2.696;2023-08-30T06:38:09;7.38;;;5.10;;
73776;SDS011;62088;50.240;2.696;2023-08-30T06:40:42;7.18;;;5.18;;
73776;SDS011;62088;50.240;2.696;2023-08-30T06:43:12;6.68;;;4.40;;
73776;SDS011;62088;50.240;2.696;2023-08-30T06:45:40;7.88;;;4.32;;
73776;SDS011;62088;50.240;2.696;2023-08-30T06:48:11;6.30;;;4.63;;
73776;SDS011;62088;50.240;2.696;2023-08-30T06:50:38;6.70;;;4.20;;
73776;SDS011;62088;50.240;2.696;2023-08-30T06:53:24;5.90;;;3.78;;
73776;SDS011;62088;50.240;2.696;2023-08-30T06:55:58;7.32;;;3.70;;
73776;SDS011;62088;50.240;2.696;2023-08-30T06:58:26;6.72;;;3.53;;
73776;SDS011;62088;50.240;2.696;2023-08-30T07:00:54;6.50;;;3.40;;
73776;SDS011;62088;50.240;2.696;2023-08-30T07:03:23;5.85;;;3.40;;
73776;SDS011;62088;50.240;2.696;2023-08-30T07:05:52;7.07;;;3.22;;
73776;SDS011;62088;50.240;2.696;2023-08-30T07:08:38;5.45;;;3.15;;
73776;SDS011;62088;50.240;2.696;2023-08-30T07:11:06;4.82;;;2.95;;
73776;SDS011;62088;50.240;2.696;2023-08-30T07:13:49;4.90;;;2.97;;
73776;SDS011;62088;50.240;2.696;2023-08-30T07:16:16;4.10;;;2.67;;
73776;SDS011;62088;50.240;2.696;2023-08-30T07:18:43;5.22;;;3.13;;
73776;SDS011;62088;50.240;2.696;2023-08-30T07:21:10;4.60;;;2.90;;
73776;SDS011;62088;50.240;2.696;2023-08-30T07:23:37;4.75;;;2.95;;
73776;SDS011;62088;50.240;2.696;2023-08-30T07:26:04;5.10;;;3.10;;
73776;SDS011;62088;50.240;2.696;2023-08-30T07:28:31;4.70;;;2.90;;
73776;SDS011;62088;50.240;2.696;2023-08-30T07:31:03;6.88;;;3.33;;
73776;SDS011;62088;50.240;2.696;2023-08-30T07:33:31;5.15;;;3.30;;
73776;SDS011;62088;50.240;2.696;2023-08-30T07:35:59;6.25;;;3.35;;
73776;SDS011;62088;50.240;2.696;2023-08-30T07:38:26;6.55;;;2.90;;
73776;SDS011;62088;50.240;2.696;2023-08-30T07:40:53;5.57;;;3.30;;
73776;SDS011;62088;50.240;2.696;2023-08-30T07:43:20;7.28;;;3.15;;
73776;SDS011;62088;50.240;2.696;2023-08-30T07:45:47;6.22;;;3.33;;
73776;SDS011;62088;50.240;2.696;2023-08-30T07:48:14;8.02;;;3.78;;
73776;SDS011;62088;50.240;2.696;2023-08-30T07:50:42;5.75;;;3.38;;
73776;SDS011;62088;50.240;2.696;2023-08-30T07:53:09;6.95;;;3.38;;
73776;SDS011;62088;50.240;2.696;2023-08-30T07:55:37;8.52;;;4.30;;
73776;SDS011;62088;50.240;2.696;2023-08-30T07:58:04;6.68;;;3.95;;
73776;SDS011;62088;50.240;2.696;2023-08-30T08:00:31;5.00;;;3.53;;
73776;SDS011;62088;50.240;2.696;2023-08-30T08:02:58;5.60;;;3.80;;
73776;SDS011;62088;50.240;2.696;2023-08-30T08:05:25;9.32;;;3.85;;
73776;SDS011;62088;50.240;2.696;2023-08-30T08:07:52;5.43;;;3.85;;
73776;SDS011;62088;50.240;2.696;2023-08-30T08:10:19;4.95;;;3.55;;
73776;SDS011;62088;50.240;2.696;2023-08-30T08:12:46;5.65;;;3.83;;
73776;SDS011;62088;50.240;2.696;2023-08-30T08:15:14;6.75;;;4.00;;
73776;SDS011;62088;50.240;2.696;2023-08-30T08:17:41;6.10;;;3.83;;
73776;SDS011;62088;50.240;2.696;2023-08-30T08:20:08;6.10;;;3.97;;
73776;SDS011;62088;50.240;2.696;2023-08-30T08:22:36;7.20;;;4.32;;
73776;SDS011;62088;50.240;2.696;2023-08-30T08:25:03;7.35;;;4.90;;
73776;SDS011;62088;50.240;2.696;2023-08-30T08:27:30;9.38;;;4.75;;
73776;SDS011;62088;50.240;2.696;2023-08-30T08:29:57;6.70;;;4.50;;
73776;SDS011;62088;50.240;2.696;2023-08-30T08:32:24;8.82;;;4.55;;
73776;SDS011;62088;50.240;2.696;2023-08-30T08:34:52;7.22;;;4.57;;
73776;SDS011;62088;50.240;2.696;2023-08-30T08:37:19;8.07;;;5.07;;
73776;SDS011;62088;50.240;2.696;2023-08-30T08:39:46;8.57;;;5.10;;
73776;SDS011;62088;50.240;2.696;2023-08-30T08:42:13;10.60;;;4.85;;
73776;SDS011;62088;50.240;2.696;2023-08-30T08:44:43;10.98;;;4.80;;
73776;SDS011;62088;50.240;2.696;2023-08-30T08:47:12;7.85;;;4.53;;
73776;SDS011;62088;50.240;2.696;2023-08-30T08:49:39;10.18;;;4.40;;
73776;SDS011;62088;50.240;2.696;2023-08-30T08:52:07;9.70;;;4.50;;
73776;SDS011;62088;50.240;2.696;2023-08-30T08:54:54;9.45;;;4.38;;
73776;SDS011;62088;50.240;2.696;2023-08-30T08:57:22;9.48;;;4.45;;
73776;SDS011;62088;50.240;2.696;2023-08-30T08:59:49;11.00;;;4.68;;
73776;SDS011;62088;50.240;2.696;2023-08-30T09:02:16;8.48;;;4.07;;
73776;SDS011;62088;50.240;2.696;2023-08-30T09:04:44;9.75;;;3.70;;
73776;SDS011;62088;50.240;2.696;2023-08-30T09:07:11;14.10;;;4.20;;
73776;SDS011;62088;50.240;2.696;2023-08-30T09:09:39;14.65;;;3.65;;
73776;SDS011;62088;50.240;2.696;2023-08-30T09:12:06;12.77;;;4.10;;
73776;SDS011;62088;50.240;2.696;2023-08-30T09:14:33;11.80;;;4.30;;
73776;SDS011;62088;50.240;2.696;2023-08-30T09:17:01;10.18;;;3.60;;
73776;SDS011;62088;50.240;2.696;2023-08-30T09:19:29;9.52;;;3.30;;
73776;SDS011;62088;50.240;2.696;2023-08-30T09:21:57;12.88;;;3.75;;
73776;SDS011;62088;50.240;2.696;2023-08-30T09:24:25;7.75;;;3.40;;
73776;SDS011;62088;50.240;2.696;2023-08-30T09:26:53;11.18;;;3.88;;
73776;SDS011;62088;50.240;2.696;2023-08-30T09:29:21;8.43;;;3.88;;
73776;SDS011;62088;50.240;2.696;2023-08-30T09:31:52;9.05;;;3.85;;
73776;SDS011;62088;50.240;2.696;2023-08-30T09:34:22;7.90;;;3.20;;
73776;SDS011;62088;50.240;2.696;2023-08-30T09:36:53;8.00;;;3.22;;
73776;SDS011;62088;50.240;2.696;2023-08-30T09:39:21;9.43;;;3.00;;
73776;SDS011;62088;50.240;2.696;2023-08-30T09:41:49;8.00;;;2.95;;
73776;SDS011;62088;50.240;2.696;2023-08-30T09:44:21;6.68;;;2.60;;
73776;SDS011;62088;50.240;2.696;2023-08-30T09:46:52;8.13;;;2.80;;
73776;SDS011;62088;50.240;2.696;2023-08-30T09:49:21;6.15;;;2.60;;
73776;SDS011;62088;50.240;2.696;2023-08-30T09:51:50;9.80;;;2.72;;
73776;SDS011;62088;50.240;2.696;2023-08-30T09:54:22;8.23;;;2.70;;
73776;SDS011;62088;50.240;2.696;2023-08-30T09:59:24;4.88;;;2.05;;
73776;SDS011;62088;50.240;2.696;2023-08-30T10:01:51;4.78;;;1.85;;
73776;SDS011;62088;50.240;2.696;2023-08-30T10:04:20;8.60;;;2.22;;
73776;SDS011;62088;50.240;2.696;2023-08-30T10:06:48;6.50;;;2.33;;
73776;SDS011;62088;50.240;2.696;2023-08-30T10:09:17;6.57;;;2.35;;
73776;SDS011;62088;50.240;2.696;2023-08-30T10:11:46;8.48;;;2.47;;
73776;SDS011;62088;50.240;2.696;2023-08-30T10:14:14;6.60;;;2.20;;
73776;SDS011;62088;50.240;2.696;2023-08-30T10:16:44;7.57;;;2.30;;
73776;SDS011;62088;50.240;2.696;2023-08-30T10:22:11;6.85;;;1.92;;
73776;SDS011;62088;50.240;2.696;2023-08-30T10:24:47;8.85;;;2.17;;
73776;SDS011;62088;50.240;2.696;2023-08-30T10:27:37;6.13;;;2.03;;
73776;SDS011;62088;50.240;2.696;2023-08-30T10:30:07;5.10;;;1.63;;
73776;SDS011;62088;50.240;2.696;2023-08-30T10:32:43;5.75;;;2.38;;
73776;SDS011;62088;50.240;2.696;2023-08-30T10:35:11;8.30;;;2.00;;
73776;SDS011;62088;50.240;2.696;2023-08-30T10:37:40;5.05;;;1.80;;
73776;SDS011;62088;50.240;2.696;2023-08-30T10:40:08;4.95;;;1.75;;
73776;SDS011;62088;50.240;2.696;2023-08-30T10:42:35;4.80;;;1.55;;
73776;SDS011;62088;50.240;2.696;2023-08-30T10:45:05;8.68;;;1.95;;
73776;SDS011;62088;50.240;2.696;2023-08-30T10:47:36;6.50;;;1.70;;
73776;SDS011;62088;50.240;2.696;2023-08-30T10:50:06;9.07;;;2.20;;
73776;SDS011;62088;50.240;2.696;2023-08-30T10:52:35;4.38;;;1.88;;
73776;SDS011;62088;50.240;2.696;2023-08-30T10:57:37;8.02;;;1.77;;
73776;SDS011;62088;50.240;2.696;2023-08-30T11:00:08;5.78;;;1.90;;
73776;SDS011;62088;50.240;2.696;2023-08-30T11:02:43;8.15;;;2.55;;
73776;SDS011;62088;50.240;2.696;2023-08-30T11:05:12;5.65;;;1.95;;
73776;SDS011;62088;50.240;2.696;2023-08-30T11:07:41;5.78;;;2.20;;
73776;SDS011;62088;50.240;2.696;2023-08-30T11:10:12;5.95;;;2.15;;
73776;SDS011;62088;50.240;2.696;2023-08-30T11:12:40;6.78;;;2.00;;
73776;SDS011;62088;50.240;2.696;2023-08-30T11:15:09;6.40;;;2.00;;
73776;SDS011;62088;50.240;2.696;2023-08-30T11:17:37;5.95;;;1.92;;
73776;SDS011;62088;50.240;2.696;2023-08-30T11:20:08;5.82;;;2.15;;
73776;SDS011;62088;50.240;2.696;2023-08-30T11:22:41;6.47;;;1.52;;
73776;SDS011;62088;50.240;2.696;2023-08-30T11:25:10;8.73;;;1.70;;
73776;SDS011;62088;50.240;2.696;2023-08-30T11:27:38;5.53;;;1.98;;
73776;SDS011;62088;50.240;2.696;2023-08-30T11:30:06;8.23;;;2.15;;
73776;SDS011;62088;50.240;2.696;2023-08-30T11:32:35;4.95;;;1.65;;
73776;SDS011;62088;50.240;2.696;2023-08-30T11:35:04;5.55;;;1.75;;
73776;SDS011;62088;50.240;2.696;2023-08-30T11:37:32;5.97;;;2.00;;
73776;SDS011;62088;50.240;2.696;2023-08-30T11:40:00;6.40;;;1.70;;
73776;SDS011;62088;50.240;2.696;2023-08-30T11:42:30;5.53;;;1.85;;
73776;SDS011;62088;50.240;2.696;2023-08-30T11:44:58;5.57;;;1.65;;
73776;SDS011;62088;50.240;2.696;2023-08-30T11:47:26;5.70;;;1.83;;
73776;SDS011;62088;50.240;2.696;2023-08-30T11:49:54;6.18;;;1.65;;
73776;SDS011;62088;50.240;2.696;2023-08-30T11:52:26;5.88;;;1.83;;
73776;SDS011;62088;50.240;2.696;2023-08-30T11:54:54;5.25;;;1.80;;
73776;SDS011;62088;50.240;2.696;2023-08-30T11:57:21;4.72;;;1.50;;
73776;SDS011;62088;50.240;2.696;2023-08-30T11:59:51;6.10;;;1.75;;
73776;SDS011;62088;50.240;2.696;2023-08-30T12:02:18;5.75;;;1.75;;
73776;SDS011;62088;50.240;2.696;2023-08-30T12:04:45;5.53;;;1.52;;
73776;SDS011;62088;50.240;2.696;2023-08-30T12:07:23;6.47;;;1.52;;
73776;SDS011;62088;50.240;2.696;2023-08-30T12:10:03;6.45;;;1.42;;
73776;SDS011;62088;50.240;2.696;2023-08-30T12:12:34;5.32;;;1.65;;
73776;SDS011;62088;50.240;2.696;2023-08-30T12:15:08;3.10;;;1.08;;
73776;SDS011;62088;50.240;2.696;2023-08-30T12:20:05;6.50;;;1.48;;
73776;SDS011;62088;50.240;2.696;2023-08-30T12:22:36;6.47;;;1.40;;
73776;SDS011;62088;50.240;2.696;2023-08-30T12:25:20;8.57;;;1.35;;
73776;SDS011;62088;50.240;2.696;2023-08-30T12:27:50;4.68;;;1.30;;
73776;SDS011;62088;50.240;2.696;2023-08-30T12:30:17;6.50;;;1.20;;
73776;SDS011;62088;50.240;2.696;2023-08-30T12:32:45;3.50;;;0.85;;
73776;SDS011;62088;50.240;2.696;2023-08-30T12:35:13;3.92;;;1.38;;
73776;SDS011;62088;50.240;2.696;2023-08-30T12:37:41;3.67;;;1.15;;
73776;SDS011;62088;50.240;2.696;2023-08-30T12:40:08;3.38;;;1.20;;
73776;SDS011;62088;50.240;2.696;2023-08-30T12:42:36;6.03;;;1.52;;
73776;SDS011;62088;50.240;2.696;2023-08-30T12:45:04;5.82;;;1.30;;
73776;SDS011;62088;50.240;2.696;2023-08-30T12:47:31;5.97;;;1.58;;
73776;SDS011;62088;50.240;2.696;2023-08-30T12:49:58;5.10;;;1.40;;
73776;SDS011;62088;50.240;2.696;2023-08-30T12:52:25;5.22;;;1.17;;
73776;SDS011;62088;50.240;2.696;2023-08-30T12:54:52;5.40;;;1.17;;
73776;SDS011;62088;50.240;2.696;2023-08-30T12:57:20;3.00;;;1.08;;
73776;SDS011;62088;50.240;2.696;2023-08-30T12:59:47;5.15;;;1.10;;
73776;SDS011;62088;50.240;2.696;2023-08-30T13:02:14;3.33;;;0.90;;
73776;SDS011;62088;50.240;2.696;2023-08-30T13:04:42;6.80;;;1.30;;
73776;SDS011;62088;50.240;2.696;2023-08-30T13:07:09;4.50;;;1.10;;
73776;SDS011;62088;50.240;2.696;2023-08-30T13:09:36;5.00;;;1.20;;
73776;SDS011;62088;50.240;2.696;2023-08-30T13:12:03;5.68;;;1.15;;
73776;SDS011;62088;50.240;2.696;2023-08-30T13:14:30;4.93;;;1.20;;
73776;SDS011;62088;50.240;2.696;2023-08-30T13:16:57;3.17;;;1.10;;
73776;SDS011;62088;50.240;2.696;2023-08-30T13:19:24;3.35;;;1.00;;
73776;SDS011;62088;50.240;2.696;2023-08-30T13:21:52;3.63;;;1.00;;
73776;SDS011;62088;50.240;2.696;2023-08-30T13:24:19;4.85;;;1.20;;
73776;SDS011;62088;50.240;2.696;2023-08-30T13:26:46;5.22;;;1.20;;
73776;SDS011;62088;50.240;2.696;2023-08-30T13:29:13;3.13;;;1.13;;
73776;SDS011;62088;50.240;2.696;2023-08-30T13:31:41;3.88;;;0.95;;
73776;SDS011;62088;50.240;2.696;2023-08-30T13:34:08;2.63;;;0.90;;
73776;SDS011;62088;50.240;2.696;2023-08-30T13:36:35;5.82;;;1.17;;
73776;SDS011;62088;50.240;2.696;2023-08-30T13:39:03;2.65;;;0.85;;
73776;SDS011;62088;50.240;2.696;2023-08-30T13:41:30;3.70;;;1.23;;
73776;SDS011;62088;50.240;2.696;2023-08-30T13:43:57;5.70;;;1.35;;
73776;SDS011;62088;50.240;2.696;2023-08-30T13:46:28;4.28;;;1.08;;
73776;SDS011;62088;50.240;2.696;2023-08-30T13:48:55;5.05;;;1.42;;
73776;SDS011;62088;50.240;2.696;2023-08-30T13:51:23;3.80;;;1.13;;
73776;SDS011;62088;50.240;2.696;2023-08-30T13:53:51;6.65;;;1.40;;
73776;SDS011;62088;50.240;2.696;2023-08-30T13:56:19;6.60;;;1.30;;
73776;SDS011;62088;50.240;2.696;2023-08-30T13:58:46;3.88;;;1.30;;
73776;SDS011;62088;50.240;2.696;2023-08-30T14:01:14;9.80;;;1.77;;
73776;SDS011;62088;50.240;2.696;2023-08-30T14:03:41;11.40;;;2.10;;
73776;SDS011;62088;50.240;2.696;2023-08-30T14:06:08;9.43;;;1.73;;
73776;SDS011;62088;50.240;2.696;2023-08-30T14:08:35;10.63;;;2.28;;
73776;SDS011;62088;50.240;2.696;2023-08-30T14:11:03;60.95;;;3.88;;
73776;SDS011;62088;50.240;2.696;2023-08-30T14:13:30;13.40;;;2.80;;
73776;SDS011;62088;50.240;2.696;2023-08-30T14:16:00;6.03;;;2.00;;
73776;SDS011;62088;50.240;2.696;2023-08-30T14:18:30;18.10;;;2.50;;
73776;SDS011;62088;50.240;2.696;2023-08-30T14:20:58;6.47;;;1.60;;
73776;SDS011;62088;50.240;2.696;2023-08-30T14:23:26;7.88;;;2.05;;
73776;SDS011;62088;50.240;2.696;2023-08-30T14:25:57;12.80;;;2.25;;
73776;SDS011;62088;50.240;2.696;2023-08-30T14:28:25;14.68;;;3.58;;
73776;SDS011;62088;50.240;2.696;2023-08-30T14:30:53;11.77;;;2.35;;
73776;SDS011;62088;50.240;2.696;2023-08-30T14:33:20;7.03;;;1.70;;
73776;SDS011;62088;50.240;2.696;2023-08-30T14:35:47;6.53;;;1.70;;
73776;SDS011;62088;50.240;2.696;2023-08-30T14:38:14;8.45;;;1.65;;
73776;SDS011;62088;50.240;2.696;2023-08-30T14:40:41;10.35;;;2.30;;
73776;SDS011;62088;50.240;2.696;2023-08-30T14:43:09;23.65;;;2.65;;
73776;SDS011;62088;50.240;2.696;2023-08-30T14:45:36;6.65;;;1.33;;
73776;SDS011;62088;50.240;2.696;2023-08-30T14:48:03;4.85;;;1.60;;
73776;SDS011;62088;50.240;2.696;2023-08-30T14:50:30;5.95;;;1.45;;
73776;SDS011;62088;50.240;2.696;2023-08-30T14:52:57;5.57;;;1.63;;
73776;SDS011;62088;50.240;2.696;2023-08-30T14:55:24;6.88;;;1.70;;
73776;SDS011;62088;50.240;2.696;2023-08-30T14:57:52;4.95;;;1.52;;
73776;SDS011;62088;50.240;2.696;2023-08-30T15:00:19;3.97;;;1.20;;
73776;SDS011;62088;50.240;2.696;2023-08-30T15:02:47;6.28;;;1.33;;
73776;SDS011;62088;50.240;2.696;2023-08-30T15:05:14;19.27;;;2.40;;
73776;SDS011;62088;50.240;2.696;2023-08-30T15:07:41;5.78;;;1.90;;
73776;SDS011;62088;50.240;2.696;2023-08-30T15:10:08;5.57;;;1.38;;
73776;SDS011;62088;50.240;2.696;2023-08-30T15:12:39;8.88;;;1.70;;
73776;SDS011;62088;50.240;2.696;2023-08-30T15:15:06;5.57;;;1.58;;